Amherst, OH

1:03 PM EDT on September 20, 2014 (GMT -0400)
Amherst Township | Change Station
CLOSE
Current Station
Personal Weather Station
Location: Amherst, OH
Elevation: 725 ft
Nearby Weather Stations

Elev 725 ft 41.40 °N, 82.21 °W | Updated 3 minutes ago

Clear
Clear
78.7 °F
Feels Like 80 °F
N
3.0
Wind Variable Wind from South
Gusts 14.0 mph

Today
High -- | Low -- °F
--% Chance of Precip.
Yesterday
High -- | Low -- °F
Precip. -- in
7:14 AM 7:29 PM
Waning Crescent, 11% visible
Pressure 30.00 in
Visibility 10.0 miles
Clouds Clear
Heat Index 80 °F
Dew Point 61 °F
Humidity 54%
Rainfall 0.00 in
Snow Depth Not available.
UV 7 out of 12
Pollen 5.00 out of 12
Ozone Good
PM2.5 Moderate
Flu Activity Not available.
METAR KLPR 201653Z AUTO 23016G23KT 10SM CLR 26/16 A3001 RMK AO2 SLP157 T02610161 TSNO

More Conditions Fewer Conditions

Pressure 30.00 in
Visibility 10.0 miles
Clouds Clear
Heat Index 80 °F
Dew Point 61 °F
Humidity 54%
Rainfall 0.00 in
Snow Depth Not available.
UV 7 out of 12
Pollen 5.00 out of 12
Ozone Good
PM2.5 Moderate
Flu Activity Not available.
METAR KLPR 201653Z AUTO 23016G23KT 10SM CLR 26/16 A3001 RMK AO2 SLP157 T02610161 TSNO

More Conditions Fewer Conditions

10-Day Weather Forecast

Almanac

Astronomy

Sep. 20, 2014 Rise Set
Actual Time 7:14 AM EDT 7:29 PM EDT
Civil Twilight 6:46 AM EDT 7:57 PM EDT
Nautical Twilight 6:14 AM EDT 8:29 PM EDT
Astronomical Twilight 5:41 AM EDT 9:02 PM EDT
Moon 3:50 AM EDT 5:33 PM EDT
Length of Visible Light 13h 10m
Length of Day
12h 15m
Tomorrow will be 2m 45s shorter.
Waning Crescent, 11% of the Moon is Illuminated
Today
Waning Crescent
Sep 24
New
Oct 1
First Quarter
Oct 8
Full
Oct 15
Last Quarter

Today's Extremes

State Highs State Lows

Community

WunderPhotos

Upload Photos

1,754,906 photos uploaded!

Nearby

Air Quality

  Air Quality AQ Index Pollutant
Yesterday Good
PM10
Yesterday Good
OZONE
Current Moderate
PM2.5
Current Good
OZONE
Saturday Good
PM2.5
Saturday Good
OZONE
Sunday Good
PM2.5
Sunday Good
OZONE
Monday Good
PM2.5
Monday Good
OZONE

Snow Depth

Station Depth Elevation
No new snow has been reported.

Earthquake Activity

City Distance Mag. Time & Date
No recent earthquake activity has been reported nearby.
Minimum magnitude displayed is 2.5.

Coastal Water Temperatures

Place Temperature
Cleveland, OH 66.9 °F
Marblehead, OH 64.9 °F
Fairport, OH 66.0 °F

Nearby Weather Stations